createdAt,value
2022-08-17T00:00:49.683Z,99.99
2022-08-17T00:01:52.062Z,99.99
2022-08-17T00:02:42.862Z,99.99
2022-08-17T00:03:37.016Z,99.99
2022-08-17T00:04:37.011Z,99.99
2022-08-17T00:05:37.015Z,99.99
2022-08-17T00:06:37.022Z,99.99
2022-08-17T00:07:37.025Z,99.99
2022-08-17T00:08:37.041Z,99.99
2022-08-17T00:09:37.037Z,99.99
2022-08-17T00:10:37.037Z,99.99
2022-08-17T00:11:37.049Z,99.99
2022-08-17T00:12:42.931Z,99.99
2022-08-17T00:13:37.071Z,99.99
2022-08-17T00:14:37.078Z,99.99
2022-08-17T00:15:37.071Z,99.99
2022-08-17T00:16:55.461Z,99.99
2022-08-17T00:17:37.075Z,99.99
2022-08-17T00:18:58.229Z,99.99
2022-08-17T00:19:37.109Z,99.99
2022-08-17T00:20:37.094Z,99.99
2022-08-17T00:22:32.499Z,99.99
2022-08-17T00:22:37.095Z,99.99
2022-08-17T00:23:37.105Z,99.99
2022-08-17T00:24:37.127Z,99.99
2022-08-17T00:25:37.119Z,99.99
2022-08-17T00:26:44.950Z,99.99
2022-08-17T00:27:37.148Z,99.99
2022-08-17T00:28:37.140Z,99.99
2022-08-17T00:29:37.156Z,99.99
2022-08-17T00:30:51.017Z,99.99
2022-08-17T00:31:37.177Z,99.99
2022-08-17T00:33:12.481Z,99.99
2022-08-17T00:33:37.164Z,99.99
2022-08-17T00:34:37.160Z,99.99
2022-08-17T00:35:37.174Z,99.99
2022-08-17T00:36:37.206Z,99.99
2022-08-17T00:37:37.191Z,99.99
2022-08-17T00:38:37.186Z,99.99
2022-08-17T00:39:37.235Z,99.99
2022-08-17T00:40:44.282Z,99.99
2022-08-17T00:41:42.190Z,99.99
2022-08-17T00:42:37.214Z,99.99
2022-08-17T00:43:37.215Z,99.99
2022-08-17T00:44:37.221Z,99.99
2022-08-17T00:45:37.230Z,99.99
2022-08-17T00:46:37.269Z,99.99
2022-08-17T00:47:37.251Z,99.99
2022-08-17T00:48:37.243Z,99.99
2022-08-17T00:49:37.251Z,99.99
2022-08-17T00:50:37.247Z,99.99
2022-08-17T00:51:37.271Z,99.99
2022-08-17T00:52:37.297Z,99.99
2022-08-17T00:53:37.265Z,99.99
2022-08-17T00:54:42.077Z,99.99
2022-08-17T00:55:37.263Z,99.99
2022-08-17T00:56:37.280Z,99.99
2022-08-17T00:57:37.303Z,99.99
2022-08-17T00:58:37.299Z,99.99
2022-08-17T00:59:37.287Z,99.99
2022-08-17T01:00:37.311Z,99.99
2022-08-17T01:01:37.348Z,99.99
2022-08-17T01:02:42.613Z,99.99
2022-08-17T01:03:37.327Z,99.99
2022-08-17T01:04:37.337Z,99.99
2022-08-17T01:05:37.318Z,99.99
2022-08-17T01:06:37.328Z,99.99
2022-08-17T01:07:37.941Z,99.99
2022-08-17T01:08:37.342Z,99.99
2022-08-17T01:09:37.360Z,99.99
2022-08-17T01:10:58.345Z,99.99
2022-08-17T01:11:37.359Z,99.99
2022-08-17T01:12:37.351Z,99.99
2022-08-17T01:13:41.039Z,99.99
2022-08-17T01:16:09.486Z,99.99
2022-08-17T01:17:09.421Z,99.99
2022-08-17T01:18:09.525Z,99.99
2022-08-17T01:19:09.429Z,99.99
2022-08-17T01:20:09.451Z,99.99
2022-08-17T01:21:09.459Z,99.99
2022-08-17T01:22:09.479Z,99.99
2022-08-17T01:23:09.457Z,99.99
2022-08-17T01:24:09.467Z,99.99
2022-08-17T01:25:09.473Z,99.99
2022-08-17T01:26:09.479Z,99.99
2022-08-17T01:27:10.607Z,99.99
2022-08-17T01:28:09.501Z,99.99
2022-08-17T01:29:09.504Z,99.99
2022-08-17T01:30:58.970Z,99.99
2022-08-17T01:31:09.498Z,99.99
2022-08-17T01:32:09.517Z,99.99
2022-08-17T01:33:09.525Z,99.99
2022-08-17T01:34:09.533Z,99.99
2022-08-17T01:35:09.536Z,99.99
2022-08-17T01:36:09.542Z,99.99
2022-08-17T01:37:09.557Z,99.99
2022-08-17T01:38:17.630Z,99.99
2022-08-17T01:39:17.662Z,99.99
2022-08-17T01:40:17.684Z,99.99
2022-08-17T01:41:09.562Z,99.99
2022-08-17T01:42:17.138Z,99.99
2022-08-17T01:43:17.755Z,99.99
2022-08-17T01:44:18.805Z,99.99
2022-08-17T01:45:17.337Z,99.99
2022-08-17T01:46:18.862Z,99.99
2022-08-17T01:47:16.769Z,99.99
2022-08-17T01:48:17.125Z,99.99
2022-08-17T01:49:17.955Z,99.99
2022-08-17T01:50:18.160Z,99.99
2022-08-17T01:51:17.137Z,99.99
2022-08-17T01:52:18.084Z,99.99
2022-08-17T01:53:18.128Z,99.99
2022-08-17T01:54:17.152Z,99.99
2022-08-17T01:55:09.617Z,99.99
2022-08-17T01:56:09.605Z,99.99
2022-08-17T01:57:09.624Z,99.99
2022-08-17T01:58:09.638Z,99.99
2022-08-17T01:59:09.640Z,99.99
2022-08-17T02:00:09.631Z,99.99
2022-08-17T02:01:09.723Z,99.99
2022-08-17T02:02:09.654Z,99.99
2022-08-17T02:03:09.631Z,99.99
2022-08-17T02:04:09.651Z,99.99
2022-08-17T02:05:09.647Z,99.99
2022-08-17T02:06:26.930Z,99.99
2022-08-17T02:07:09.651Z,99.99
2022-08-17T02:08:09.668Z,99.99
2022-08-17T02:09:16.397Z,99.99
2022-08-17T02:10:16.719Z,99.99
2022-08-17T02:11:11.285Z,99.99
2022-08-17T02:12:37.680Z,99.99
2022-08-17T02:13:09.677Z,99.99
2022-08-17T02:14:09.701Z,99.99
2022-08-17T02:15:09.700Z,99.99
2022-08-17T02:16:09.695Z,99.99
2022-08-17T02:17:09.707Z,99.99
2022-08-17T02:18:09.715Z,99.99
2022-08-17T02:19:09.722Z,99.99
2022-08-17T02:20:09.713Z,99.99
2022-08-17T02:21:09.770Z,99.99
2022-08-17T02:22:09.732Z,99.99
2022-08-17T02:23:09.733Z,99.99
2022-08-17T02:24:09.774Z,99.99
2022-08-17T02:25:09.752Z,99.99
2022-08-17T02:26:09.735Z,99.99
2022-08-17T02:27:09.762Z,99.99
2022-08-17T02:28:09.766Z,99.99
2022-08-17T02:29:09.750Z,99.99
2022-08-17T02:31:00.194Z,99.99
2022-08-17T02:31:09.763Z,99.99
2022-08-17T02:32:09.787Z,99.99
2022-08-17T02:33:09.790Z,99.99
2022-08-17T02:34:09.793Z,99.99
2022-08-17T02:35:09.778Z,99.99
2022-08-17T02:36:09.777Z,99.99
2022-08-17T02:37:09.780Z,99.99
2022-08-17T02:38:09.808Z,99.99
2022-08-17T02:39:09.816Z,99.99
2022-08-17T02:40:09.832Z,99.99
2022-08-17T02:41:09.803Z,99.99
2022-08-17T02:42:09.823Z,99.99
2022-08-17T02:43:09.809Z,99.99
2022-08-17T02:44:09.823Z,99.99
2022-08-17T02:45:09.850Z,99.99
2022-08-17T02:46:09.824Z,99.99
2022-08-17T02:47:09.834Z,99.99
2022-08-17T02:48:09.840Z,99.99
2022-08-17T02:49:09.839Z,99.99
2022-08-17T02:50:09.859Z,99.99
2022-08-17T02:51:09.890Z,99.99
2022-08-17T02:52:09.867Z,99.99
2022-08-17T02:53:09.880Z,99.99
2022-08-17T02:54:41.566Z,99.99
2022-08-17T02:55:09.889Z,99.99
2022-08-17T02:56:09.879Z,99.99
2022-08-17T02:57:09.883Z,99.99
2022-08-17T02:58:09.897Z,99.99
2022-08-17T02:59:09.892Z,99.99
2022-08-17T03:00:09.915Z,99.99
2022-08-17T03:01:09.984Z,99.99
2022-08-17T03:02:09.908Z,99.99
2022-08-17T03:03:09.950Z,99.99
2022-08-17T03:04:09.914Z,99.99
2022-08-17T03:05:09.924Z,99.99
2022-08-17T03:06:09.927Z,99.99
2022-08-17T03:07:09.934Z,99.99
2022-08-17T03:08:13.275Z,99.99
2022-08-17T03:09:09.924Z,99.99
2022-08-17T03:10:09.933Z,99.99
2022-08-17T03:11:09.961Z,99.99
2022-08-17T03:12:09.969Z,99.99
2022-08-17T03:13:09.964Z,99.99
2022-08-17T03:14:09.952Z,99.99
2022-08-17T03:15:09.957Z,99.99
2022-08-17T03:16:09.959Z,99.99
2022-08-17T03:17:10.212Z,99.99
2022-08-17T03:18:11.536Z,99.99
2022-08-17T03:19:09.972Z,99.99
2022-08-17T03:20:09.994Z,99.99
2022-08-17T03:21:09.982Z,99.99
2022-08-17T03:22:35.548Z,99.99
2022-08-17T03:23:10.018Z,99.99
2022-08-17T03:24:10.008Z,99.99
2022-08-17T03:25:10.803Z,99.99
2022-08-17T03:26:15.246Z,99.99
2022-08-17T03:27:10.017Z,99.99
2022-08-17T03:28:10.026Z,99.99
2022-08-17T03:29:10.038Z,99.99
2022-08-17T03:30:10.030Z,99.99
2022-08-17T03:31:10.038Z,99.99
2022-08-17T03:32:10.030Z,99.99
2022-08-17T03:33:10.042Z,99.99
2022-08-17T03:34:10.060Z,99.99
2022-08-17T03:35:10.053Z,99.99
2022-08-17T03:36:10.070Z,99.99
2022-08-17T03:37:10.061Z,99.99
2022-08-17T03:38:10.065Z,99.99
2022-08-17T03:39:10.069Z,99.99
2022-08-17T03:40:10.140Z,99.99
2022-08-17T03:41:10.098Z,99.99
2022-08-17T03:42:31.501Z,99.99
2022-08-17T03:43:10.078Z,99.99
2022-08-17T03:44:10.095Z,99.99
2022-08-17T03:45:10.087Z,99.99
2022-08-17T03:46:27.103Z,99.99
2022-08-17T03:47:10.106Z,99.99
2022-08-17T03:48:10.109Z,99.99
2022-08-17T03:49:10.116Z,99.99
2022-08-17T03:50:10.464Z,99.99
2022-08-17T03:51:14.538Z,99.99
2022-08-17T03:52:10.144Z,99.99
2022-08-17T03:53:10.134Z,99.99
2022-08-17T03:54:10.127Z,99.99
2022-08-17T03:55:10.133Z,99.99
2022-08-17T03:56:10.157Z,99.99
2022-08-17T03:57:10.137Z,99.99
2022-08-17T03:58:10.154Z,99.99
2022-08-17T03:59:10.158Z,99.99
2022-08-17T04:00:10.164Z,99.99
2022-08-17T04:01:10.194Z,99.99
2022-08-17T04:02:10.174Z,99.99
2022-08-17T04:03:10.181Z,99.99
2022-08-17T04:04:10.172Z,99.99
2022-08-17T04:05:10.199Z,99.99
2022-08-17T04:06:10.179Z,99.99
2022-08-17T04:07:10.203Z,99.99
2022-08-17T04:08:10.224Z,99.99
2022-08-17T04:09:10.221Z,99.99
2022-08-17T04:10:10.216Z,99.99
2022-08-17T04:11:10.208Z,99.99
2022-08-17T04:12:10.213Z,99.99
2022-08-17T04:13:10.206Z,99.99
2022-08-17T04:14:10.233Z,99.99
2022-08-17T04:15:10.234Z,99.99
2022-08-17T04:16:10.235Z,99.99
2022-08-17T04:17:10.240Z,99.99
2022-08-17T04:18:11.074Z,99.99
2022-08-17T04:19:10.246Z,99.99
2022-08-17T04:20:10.250Z,99.99
2022-08-17T04:21:10.259Z,99.99
2022-08-17T04:22:10.256Z,99.99
2022-08-17T04:23:10.273Z,99.99
2022-08-17T04:24:10.277Z,99.99
2022-08-17T04:25:10.267Z,99.99
2022-08-17T04:26:10.275Z,99.99
2022-08-17T04:27:10.285Z,99.99
2022-08-17T04:28:15.868Z,99.99
2022-08-17T04:29:10.292Z,99.99
2022-08-17T04:30:10.317Z,99.99
2022-08-17T04:31:10.302Z,99.99
2022-08-17T04:32:10.308Z,99.99
2022-08-17T04:33:10.401Z,99.99
2022-08-17T04:34:10.320Z,99.99
2022-08-17T04:35:10.353Z,99.99
2022-08-17T04:36:10.337Z,99.99
2022-08-17T04:37:10.326Z,99.99
2022-08-17T04:38:10.323Z,99.99
2022-08-17T04:39:10.334Z,99.99
2022-08-17T04:40:10.379Z,99.99
2022-08-17T04:41:10.341Z,99.99
2022-08-17T04:42:10.379Z,99.99
2022-08-17T04:43:10.340Z,99.99
2022-08-17T04:44:10.348Z,99.99
2022-08-17T04:45:10.348Z,99.99
2022-08-17T04:46:10.394Z,99.99
2022-08-17T04:47:10.551Z,99.99
2022-08-17T04:48:10.373Z,99.99
2022-08-17T04:49:10.394Z,99.99
2022-08-17T04:50:10.379Z,99.99
2022-08-17T04:51:10.602Z,99.99
2022-08-17T04:52:10.389Z,99.99
2022-08-17T04:53:10.390Z,99.99
2022-08-17T04:54:10.404Z,99.99
2022-08-17T04:55:10.408Z,99.99
2022-08-17T04:56:11.836Z,99.99
2022-08-17T04:57:10.408Z,99.99
2022-08-17T04:58:10.415Z,99.99
2022-08-17T04:59:10.415Z,99.99
2022-08-17T05:00:10.429Z,99.99
2022-08-17T05:01:10.512Z,99.99
2022-08-17T05:02:10.437Z,99.99
2022-08-17T05:03:10.450Z,99.99
2022-08-17T05:04:21.377Z,99.99
2022-08-17T05:05:10.462Z,99.99
2022-08-17T05:06:10.450Z,99.99
2022-08-17T05:07:10.449Z,99.99
2022-08-17T05:08:10.452Z,99.99
2022-08-17T05:09:10.467Z,99.99
2022-08-17T05:10:10.497Z,99.99
2022-08-17T05:11:10.475Z,99.99
2022-08-17T05:12:10.474Z,99.99
2022-08-17T05:13:10.480Z,99.99
2022-08-17T05:14:10.492Z,99.99
2022-08-17T05:15:10.487Z,99.99
2022-08-17T05:16:10.510Z,99.99
2022-08-17T05:17:11.435Z,99.99
2022-08-17T05:19:43.434Z,99.99
2022-08-17T05:20:42.583Z,99.99
2022-08-17T05:21:42.615Z,99.99
2022-08-17T05:22:42.654Z,99.99
2022-08-17T05:23:43.524Z,99.99
2022-08-17T05:24:53.426Z,99.99
2022-08-17T05:25:42.628Z,99.99
2022-08-17T05:26:42.650Z,99.99
2022-08-17T05:27:42.638Z,99.99
2022-08-17T05:28:42.648Z,99.99
2022-08-17T05:29:42.637Z,99.99
2022-08-17T05:30:42.645Z,99.99
2022-08-17T05:31:42.663Z,99.99
2022-08-17T05:32:42.672Z,99.99
2022-08-17T05:33:44.533Z,99.99
2022-08-17T05:34:42.654Z,99.99
2022-08-17T05:35:42.657Z,99.99
2022-08-17T05:36:44.520Z,99.99
2022-08-17T05:37:42.686Z,99.99
2022-08-17T05:38:42.701Z,99.99
2022-08-17T05:39:42.751Z,99.99
2022-08-17T05:40:42.681Z,99.99
2022-08-17T05:41:42.705Z,99.99
2022-08-17T05:42:42.732Z,99.99
2022-08-17T05:43:42.697Z,99.99
2022-08-17T05:44:42.716Z,99.99
2022-08-17T05:45:55.362Z,99.99
2022-08-17T05:46:42.763Z,99.99
2022-08-17T05:47:42.748Z,99.99
2022-08-17T05:48:42.749Z,99.99
2022-08-17T05:49:42.759Z,99.99
2022-08-17T05:50:42.733Z,99.99
2022-08-17T05:51:42.753Z,99.99
2022-08-17T05:52:42.839Z,99.99
2022-08-17T05:53:42.957Z,99.99
2022-08-17T05:54:42.786Z,99.99
2022-08-17T05:55:42.796Z,99.99
2022-08-17T05:56:42.772Z,99.99
2022-08-17T05:57:52.891Z,99.99
2022-08-17T05:58:42.784Z,99.99
2022-08-17T05:59:42.789Z,99.99
2022-08-17T06:00:42.951Z,99.99
2022-08-17T06:01:42.811Z,99.99
2022-08-17T06:02:47.504Z,99.99
2022-08-17T06:03:42.821Z,99.99
2022-08-17T06:04:42.818Z,99.99
2022-08-17T06:05:42.817Z,99.99
2022-08-17T06:06:42.833Z,99.99
2022-08-17T06:07:42.839Z,99.99
2022-08-17T06:08:42.846Z,99.55
2022-08-17T06:09:42.857Z,96.94
2022-08-17T06:10:42.853Z,94.72
2022-08-17T06:11:42.857Z,94.18
2022-08-17T06:12:42.910Z,95.54
2022-08-17T06:13:42.877Z,94.76
2022-08-17T06:14:42.889Z,94.57
2022-08-17T06:15:42.870Z,95.06
2022-08-17T06:16:42.871Z,95.54
2022-08-17T06:17:42.870Z,95.20
2022-08-17T06:18:42.886Z,95.15
2022-08-17T06:19:42.906Z,95.83
2022-08-17T06:20:42.906Z,95.83
2022-08-17T06:21:42.903Z,95.73
2022-08-17T06:22:43.010Z,95.97
2022-08-17T06:23:42.919Z,95.68
2022-08-17T06:24:42.923Z,96.46
2022-08-17T06:25:42.946Z,95.68
2022-08-17T06:26:43.543Z,95.01
2022-08-17T06:27:42.946Z,93.75
2022-08-17T06:28:42.945Z,93.85
2022-08-17T06:29:42.954Z,94.62
2022-08-17T06:31:00.858Z,94.43
2022-08-17T06:31:42.946Z,94.47
2022-08-17T06:32:43.007Z,93.79
2022-08-17T06:33:42.974Z,94.09
2022-08-17T06:34:42.969Z,93.60
2022-08-17T06:35:43.692Z,93.99
2022-08-17T06:36:42.997Z,93.31
2022-08-17T06:37:42.996Z,93.02
2022-08-17T06:38:42.989Z,92.63
2022-08-17T06:39:43.035Z,93.26
2022-08-17T06:40:43.009Z,93.07
2022-08-17T06:41:43.036Z,93.74
2022-08-17T06:42:58.807Z,93.45
2022-08-17T06:43:47.461Z,92.00
2022-08-17T06:44:50.560Z,88.37
2022-08-17T06:45:43.033Z,87.59
2022-08-17T06:46:43.030Z,87.49
2022-08-17T06:47:43.081Z,87.40
2022-08-17T06:48:43.054Z,86.52
2022-08-17T06:49:43.048Z,86.52
2022-08-17T06:50:43.077Z,86.72
2022-08-17T06:51:43.062Z,86.33
2022-08-17T06:52:47.089Z,85.50
2022-08-17T06:53:43.094Z,85.60
2022-08-17T06:54:43.089Z,86.57
2022-08-17T06:55:43.125Z,86.37
2022-08-17T06:56:53.481Z,86.76
2022-08-17T06:57:43.095Z,86.22
2022-08-17T06:58:43.113Z,84.57
2022-08-17T06:59:55.545Z,84.19
2022-08-17T07:00:43.154Z,84.96
2022-08-17T07:01:43.153Z,85.15
2022-08-17T07:03:02.102Z,84.96
2022-08-17T07:03:43.138Z,85.35
2022-08-17T07:04:43.151Z,85.68
2022-08-17T07:05:43.154Z,85.10
2022-08-17T07:06:50.719Z,84.07
2022-08-17T07:07:43.171Z,83.29
2022-08-17T07:08:43.165Z,83.44
2022-08-17T07:09:43.193Z,82.27
2022-08-17T07:12:30.072Z,84.06
2022-08-17T07:13:30.767Z,83.28
2022-08-17T07:14:22.561Z,83.67
2022-08-17T07:15:22.562Z,83.37
2022-08-17T07:16:30.781Z,82.84
2022-08-17T07:17:22.589Z,82.99
2022-08-17T07:18:22.563Z,83.91
2022-08-17T07:19:22.592Z,81.14
2022-08-17T07:20:22.636Z,79.14
2022-08-17T07:21:25.859Z,78.75
2022-08-17T07:22:22.632Z,79.20
2022-08-17T07:23:22.629Z,78.61
2022-08-17T07:24:29.790Z,79.14
2022-08-17T07:25:30.927Z,81.09
2022-08-17T07:26:30.169Z,81.57
2022-08-17T07:27:31.893Z,81.09
2022-08-17T07:28:31.939Z,81.76
2022-08-17T07:29:30.977Z,79.33
2022-08-17T07:30:22.665Z,77.97
2022-08-17T07:31:22.697Z,78.94
2022-08-17T07:32:22.657Z,78.66
2022-08-17T07:33:22.672Z,77.72
2022-08-17T07:34:31.996Z,76.94
2022-08-17T07:35:22.672Z,76.94
2022-08-17T07:36:26.451Z,76.65
2022-08-17T07:37:22.708Z,76.17
2022-08-17T07:38:24.942Z,76.45
2022-08-17T07:39:22.694Z,77.62
2022-08-17T07:40:22.751Z,77.04
2022-08-17T07:41:22.711Z,78.30
2022-08-17T07:42:22.756Z,76.17
2022-08-17T07:43:23.360Z,75.87
2022-08-17T07:44:22.749Z,73.63
2022-08-17T07:45:22.743Z,73.15
2022-08-17T07:46:22.760Z,73.18
2022-08-17T07:47:22.775Z,73.28
2022-08-17T07:48:22.759Z,73.47
2022-08-17T07:49:22.778Z,73.77
2022-08-17T07:50:25.888Z,74.26
2022-08-17T07:51:22.789Z,75.23
2022-08-17T07:52:48.033Z,73.38
2022-08-17T07:53:22.802Z,73.28
2022-08-17T07:54:22.824Z,74.00
2022-08-17T07:55:22.811Z,74.97
2022-08-17T07:56:22.826Z,73.61
2022-08-17T07:57:26.628Z,72.83
2022-08-17T07:58:22.844Z,74.58
2022-08-17T07:59:23.375Z,74.97
2022-08-17T08:00:31.651Z,74.97
2022-08-17T08:01:22.888Z,73.84
2022-08-17T08:02:22.997Z,74.68
2022-08-17T08:03:22.904Z,73.90
2022-08-17T08:04:43.419Z,73.65
2022-08-17T08:05:50.419Z,75.20
2022-08-17T08:06:22.910Z,75.30
2022-08-17T08:07:22.900Z,75.01
2022-08-17T08:08:22.944Z,74.82
2022-08-17T08:09:22.927Z,71.99
2022-08-17T08:10:22.969Z,71.31
2022-08-17T08:11:22.932Z,72.19
2022-08-17T08:12:22.937Z,72.80
2022-08-17T08:13:22.957Z,74.56
2022-08-17T08:14:28.691Z,74.07
2022-08-17T08:15:22.993Z,73.19
2022-08-17T08:16:23.006Z,72.90
2022-08-17T08:17:23.016Z,70.76
2022-08-17T08:18:54.560Z,69.39
2022-08-17T08:19:23.010Z,70.07
2022-08-17T08:20:52.648Z,71.54
2022-08-17T08:21:23.047Z,71.64
2022-08-17T08:22:23.029Z,69.98
2022-08-17T08:23:23.030Z,72.35
2022-08-17T08:24:23.065Z,68.13
2022-08-17T08:25:23.061Z,68.94
2022-08-17T08:26:23.070Z,67.25
2022-08-17T08:27:23.078Z,65.63
2022-08-17T08:28:23.071Z,65.72
2022-08-17T08:29:23.093Z,65.43
2022-08-17T08:30:23.106Z,63.18
2022-08-17T08:31:23.124Z,65.04
2022-08-17T08:32:23.099Z,67.57
2022-08-17T08:33:23.140Z,68.26
2022-08-17T08:34:54.776Z,68.84
2022-08-17T08:35:23.124Z,70.43
2022-08-17T08:37:12.793Z,68.45
2022-08-17T08:37:33.712Z,69.07
2022-08-17T08:38:23.194Z,68.19
2022-08-17T08:39:23.175Z,69.46
2022-08-17T08:40:23.194Z,69.26
2022-08-17T08:41:23.191Z,65.46
2022-08-17T08:42:23.203Z,63.87
2022-08-17T08:43:23.219Z,62.05
2022-08-17T08:44:23.241Z,62.05
2022-08-17T08:45:23.232Z,64.09
2022-08-17T08:46:23.224Z,65.85
2022-08-17T08:47:23.253Z,67.02
2022-08-17T08:48:53.344Z,67.12
2022-08-17T08:49:38.972Z,67.71
2022-08-17T08:50:37.540Z,70.24
2022-08-17T08:51:23.270Z,68.39
2022-08-17T08:52:23.291Z,67.90
2022-08-17T08:53:23.302Z,70.14
2022-08-17T08:54:26.658Z,70.24
2022-08-17T08:55:23.331Z,68.39
2022-08-17T08:56:23.348Z,68.39
2022-08-17T08:57:29.003Z,68.59
2022-08-17T08:58:40.474Z,65.75
2022-08-17T08:59:23.343Z,64.29
2022-08-17T09:00:23.371Z,63.02
2022-08-17T09:01:23.415Z,62.34
2022-08-17T09:02:34.746Z,62.18
2022-08-17T09:03:37.613Z,64.09
2022-08-17T09:04:25.478Z,64.61
2022-08-17T09:05:23.397Z,62.56
2022-08-17T09:06:33.247Z,63.34
2022-08-17T09:07:23.438Z,62.08
2022-08-17T09:08:23.425Z,61.59
2022-08-17T09:09:23.423Z,60.52
2022-08-17T09:10:24.646Z,62.27
2022-08-17T09:11:23.475Z,62.76
2022-08-17T09:12:23.471Z,62.11
2022-08-17T09:13:23.583Z,62.11
2022-08-17T09:14:28.612Z,63.48
2022-08-17T09:15:23.496Z,62.21
2022-08-17T09:16:23.500Z,63.48
2022-08-17T09:17:23.495Z,65.82
2022-08-17T09:19:00.285Z,64.94
2022-08-17T09:19:23.542Z,64.75
2022-08-17T09:20:27.532Z,63.96
2022-08-17T09:21:23.540Z,64.00
2022-08-17T09:22:23.548Z,64.29
2022-08-17T09:23:23.554Z,64.19
2022-08-17T09:24:23.605Z,65.66
2022-08-17T09:25:23.593Z,65.66
2022-08-17T09:26:23.575Z,65.26
2022-08-17T09:27:23.589Z,64.97
2022-08-17T09:28:23.608Z,63.31
2022-08-17T09:29:23.653Z,62.63
2022-08-17T09:30:23.803Z,64.78
2022-08-17T09:31:23.631Z,64.39
2022-08-17T09:32:23.709Z,61.19
2022-08-17T09:33:23.642Z,59.53
2022-08-17T09:34:28.170Z,59.23
2022-08-17T09:35:23.663Z,58.36
2022-08-17T09:36:23.694Z,57.67
2022-08-17T09:37:23.699Z,59.14
2022-08-17T09:38:23.694Z,58.36
2022-08-17T09:39:23.694Z,59.27
2022-08-17T09:40:23.730Z,60.53
2022-08-17T09:41:23.754Z,62.00
2022-08-17T09:42:23.727Z,61.12
2022-08-17T09:43:23.725Z,61.74
2022-08-17T09:44:24.020Z,59.95
2022-08-17T09:45:23.764Z,61.61
2022-08-17T09:46:23.838Z,62.69
2022-08-17T09:47:23.770Z,61.90
2022-08-17T09:48:23.781Z,60.37
2022-08-17T09:49:25.324Z,61.51
2022-08-17T09:50:55.549Z,60.57
2022-08-17T09:51:23.832Z,59.09
2022-08-17T09:52:23.837Z,59.00
2022-08-17T09:53:23.829Z,60.76
2022-08-17T09:54:38.628Z,60.37
2022-08-17T09:55:23.840Z,59.29
2022-08-17T09:56:23.875Z,60.47
2022-08-17T09:57:30.200Z,61.35
2022-08-17T09:58:23.892Z,58.93
2022-08-17T09:59:23.926Z,59.03
2022-08-17T10:00:23.902Z,60.99
2022-08-17T10:01:24.123Z,59.32
2022-08-17T10:02:23.917Z,57.56
2022-08-17T10:03:23.942Z,58.05
2022-08-17T10:04:29.316Z,58.93
2022-08-17T10:05:23.938Z,56.77
2022-08-17T10:06:23.955Z,57.36
2022-08-17T10:07:23.969Z,57.98
2022-08-17T10:08:23.976Z,58.76
2022-08-17T10:09:24.034Z,57.39
2022-08-17T10:10:24.036Z,61.54
2022-08-17T10:11:33.334Z,61.63
2022-08-17T10:12:29.858Z,59.08
2022-08-17T10:13:24.166Z,56.83
2022-08-17T10:14:37.747Z,59.08
2022-08-17T10:15:24.070Z,57.42
2022-08-17T10:16:24.062Z,55.85
2022-08-17T10:17:24.061Z,55.56
2022-08-17T10:18:24.081Z,55.98
2022-08-17T10:19:24.084Z,54.21
2022-08-17T10:20:24.104Z,53.13
2022-08-17T10:21:24.116Z,52.35
2022-08-17T10:22:35.043Z,54.11
2022-08-17T10:23:24.122Z,54.70
2022-08-17T10:24:24.129Z,54.33
2022-08-17T10:25:26.152Z,55.51
2022-08-17T10:26:24.190Z,56.01
2022-08-17T10:27:24.186Z,55.81
2022-08-17T10:28:28.821Z,56.30
2022-08-17T10:29:24.224Z,54.44
2022-08-17T10:30:24.247Z,54.75
2022-08-17T10:31:39.498Z,53.48
2022-08-17T10:32:24.254Z,53.19
2022-08-17T10:33:24.272Z,53.31
2022-08-17T10:34:24.281Z,53.23
2022-08-17T10:35:24.288Z,51.76
2022-08-17T10:36:24.322Z,50.51
2022-08-17T10:37:24.317Z,47.86
2022-08-17T10:38:24.768Z,45.81
2022-08-17T10:39:24.337Z,46.90
2022-08-17T10:40:24.486Z,46.38
2022-08-17T10:41:24.389Z,46.80
2022-08-17T10:42:30.323Z,45.62
2022-08-17T10:43:24.682Z,45.42
2022-08-17T10:44:39.801Z,44.54
2022-08-17T10:45:24.468Z,45.03
2022-08-17T10:46:30.184Z,46.41
2022-08-17T10:47:24.485Z,46.50
2022-08-17T10:48:24.522Z,46.80
2022-08-17T10:49:24.500Z,45.35
2022-08-17T10:50:24.556Z,43.99
2022-08-17T10:51:24.539Z,44.90
2022-08-17T10:52:24.939Z,46.20
2022-08-17T10:53:24.623Z,45.14
2022-08-17T10:54:24.599Z,44.65
2022-08-17T10:55:24.616Z,44.57
2022-08-17T10:56:24.635Z,42.10
2022-08-17T10:57:24.702Z,40.35
2022-08-17T10:58:24.718Z,41.17
2022-08-17T10:59:24.679Z,41.38
2022-08-17T11:00:27.637Z,41.10
2022-08-17T11:01:24.790Z,40.42
2022-08-17T11:02:24.739Z,40.23
2022-08-17T11:03:24.751Z,39.95
2022-08-17T11:04:25.200Z,39.46
2022-08-17T11:05:24.822Z,38.01
2022-08-17T11:06:24.807Z,37.73
2022-08-17T11:07:24.821Z,37.85
2022-08-17T11:08:24.843Z,37.87
2022-08-17T11:09:24.878Z,38.10
2022-08-17T11:10:24.888Z,36.10
2022-08-17T11:11:24.906Z,36.10
2022-08-17T11:12:24.927Z,37.26
2022-08-17T11:13:24.939Z,37.13
2022-08-17T11:14:24.963Z,37.83
2022-08-17T11:15:25.032Z,38.21
2022-08-17T11:16:25.000Z,39.48
2022-08-17T11:17:25.014Z,39.14
2022-08-17T11:18:25.038Z,41.02
2022-08-17T11:19:25.051Z,39.72
2022-08-17T11:20:25.091Z,40.19
2022-08-17T11:21:25.100Z,40.58
2022-08-17T11:22:36.087Z,39.36
2022-08-17T11:23:25.139Z,38.39
2022-08-17T11:24:26.017Z,38.59
2022-08-17T11:25:25.847Z,37.71
2022-08-17T11:26:37.156Z,37.04
2022-08-17T11:27:34.538Z,36.36
2022-08-17T11:28:35.702Z,35.85
2022-08-17T11:29:40.242Z,35.77
2022-08-17T11:30:35.733Z,36.64
2022-08-17T11:31:38.269Z,38.01
2022-08-17T11:34:06.327Z,37.29
2022-08-17T11:35:06.534Z,38.28
2022-08-17T11:36:05.692Z,37.98
2022-08-17T11:37:05.718Z,37.52
2022-08-17T11:38:07.763Z,35.85
2022-08-17T11:39:05.773Z,36.57
2022-08-17T11:40:05.847Z,35.27
2022-08-17T11:41:08.094Z,34.55
2022-08-17T11:42:06.463Z,36.41
2022-08-17T11:43:05.829Z,36.91
2022-08-17T11:44:05.814Z,36.30
2022-08-17T11:45:05.826Z,37.05
2022-08-17T11:46:05.849Z,38.66
2022-08-17T11:47:05.868Z,37.35
2022-08-17T11:49:05.934Z,36.15
2022-08-17T11:50:05.918Z,36.18
2022-08-17T11:51:05.985Z,35.78
2022-08-17T11:52:05.945Z,36.10
2022-08-17T11:53:05.978Z,35.21
2022-08-17T11:54:31.560Z,35.98
2022-08-17T11:55:31.751Z,35.80
2022-08-17T11:56:07.699Z,37.60
2022-08-17T11:57:06.027Z,36.51
2022-08-17T11:58:06.018Z,36.23
2022-08-17T11:59:06.027Z,35.22
2022-08-17T12:00:06.081Z,35.19
2022-08-17T12:01:06.288Z,35.69
2022-08-17T12:02:06.107Z,35.97
2022-08-17T12:03:06.165Z,36.24
2022-08-17T12:04:06.171Z,37.30
2022-08-17T12:05:09.708Z,36.88
2022-08-17T12:06:06.157Z,37.46
2022-08-17T12:07:06.165Z,39.24
2022-08-17T12:08:06.181Z,38.35
2022-08-17T12:09:06.170Z,39.14
2022-08-17T12:10:06.196Z,38.73
2022-08-17T12:11:06.207Z,38.02
2022-08-17T12:12:13.389Z,39.48
2022-08-17T12:13:06.265Z,39.97
2022-08-17T12:14:06.252Z,38.67
2022-08-17T12:15:10.137Z,38.64
2022-08-17T12:16:06.266Z,39.39
2022-08-17T12:17:06.291Z,40.16
2022-08-17T12:18:06.339Z,41.93
2022-08-17T12:19:06.320Z,42.40
2022-08-17T12:20:06.364Z,42.30
2022-08-17T12:21:06.345Z,42.86
2022-08-17T12:22:06.377Z,43.46
2022-08-17T12:23:06.358Z,42.77
2022-08-17T12:24:06.386Z,43.26
2022-08-17T12:25:06.410Z,44.44
2022-08-17T12:26:06.413Z,44.32
2022-08-17T12:27:06.423Z,43.73
2022-08-17T12:28:07.783Z,44.52
2022-08-17T12:29:18.223Z,46.78
2022-08-17T12:30:06.502Z,46.58
2022-08-17T12:31:06.474Z,46.50
2022-08-17T12:32:06.489Z,45.72
2022-08-17T12:33:06.513Z,46.21
2022-08-17T12:34:06.500Z,46.80
2022-08-17T12:35:06.511Z,47.69
2022-08-17T12:36:06.534Z,46.60
2022-08-17T12:37:06.552Z,45.01
2022-08-17T12:38:06.557Z,46.78
2022-08-17T12:39:14.023Z,47.66
2022-08-17T12:40:06.696Z,47.86
2022-08-17T12:41:06.579Z,46.88
2022-08-17T12:42:06.619Z,45.77
2022-08-17T12:43:06.627Z,46.85
2022-08-17T12:44:06.637Z,49.21
2022-08-17T12:45:06.639Z,48.52
2022-08-17T12:46:13.500Z,48.52
2022-08-17T12:47:06.696Z,48.72
2022-08-17T12:48:06.684Z,49.60
2022-08-17T12:49:06.700Z,48.33
2022-08-17T12:50:06.712Z,49.80
2022-08-17T12:51:06.717Z,49.80
2022-08-17T12:52:06.724Z,49.60
2022-08-17T12:53:06.736Z,49.99
2022-08-17T12:54:06.765Z,50.51
2022-08-17T12:55:06.763Z,49.53
2022-08-17T12:56:06.793Z,48.55
2022-08-17T12:57:06.778Z,49.04
2022-08-17T12:58:08.958Z,47.96
2022-08-17T12:59:06.807Z,47.66
2022-08-17T13:00:06.823Z,47.86